sensor_id;sensor_type;location;lat;lon;timestamp;P1;durP1;ratioP1;P2;durP2;ratioP2
72920;SDS011;61064;51.654;5.476;2023-08-06T00:01:42;7.33;;;2.60;;
72920;SDS011;61064;51.654;5.476;2023-08-06T00:04:07;6.63;;;2.30;;
72920;SDS011;61064;51.654;5.476;2023-08-06T00:06:33;8.77;;;2.70;;
72920;SDS011;61064;51.654;5.476;2023-08-06T00:08:58;6.23;;;2.30;;
72920;SDS011;61064;51.654;5.476;2023-08-06T00:11:24;6.47;;;2.50;;
72920;SDS011;61064;51.654;5.476;2023-08-06T00:13:49;6.83;;;2.53;;
72920;SDS011;61064;51.654;5.476;2023-08-06T00:16:17;6.93;;;2.50;;
72920;SDS011;61064;51.654;5.476;2023-08-06T00:18:42;7.40;;;2.47;;
72920;SDS011;61064;51.654;5.476;2023-08-06T00:21:08;7.23;;;2.50;;
72920;SDS011;61064;51.654;5.476;2023-08-06T00:23:33;6.45;;;2.40;;
72920;SDS011;61064;51.654;5.476;2023-08-06T00:25:59;6.77;;;2.50;;
72920;SDS011;61064;51.654;5.476;2023-08-06T00:28:24;6.50;;;2.30;;
72920;SDS011;61064;51.654;5.476;2023-08-06T00:30:53;6.38;;;2.40;;
72920;SDS011;61064;51.654;5.476;2023-08-06T00:33:25;6.60;;;2.25;;
72920;SDS011;61064;51.654;5.476;2023-08-06T00:35:54;6.33;;;2.33;;
72920;SDS011;61064;51.654;5.476;2023-08-06T00:38:20;7.32;;;2.60;;
72920;SDS011;61064;51.654;5.476;2023-08-06T00:40:48;5.72;;;2.30;;
72920;SDS011;61064;51.654;5.476;2023-08-06T00:43:14;10.20;;;2.70;;
72920;SDS011;61064;51.654;5.476;2023-08-06T00:45:42;6.40;;;2.50;;
72920;SDS011;61064;51.654;5.476;2023-08-06T00:48:08;7.18;;;2.80;;
72920;SDS011;61064;51.654;5.476;2023-08-06T00:50:36;7.47;;;2.50;;
72920;SDS011;61064;51.654;5.476;2023-08-06T00:53:01;7.05;;;2.65;;
72920;SDS011;61064;51.654;5.476;2023-08-06T00:55:27;6.83;;;2.90;;
72920;SDS011;61064;51.654;5.476;2023-08-06T00:57:54;6.97;;;2.70;;
72920;SDS011;61064;51.654;5.476;2023-08-06T01:00:21;6.43;;;2.72;;
72920;SDS011;61064;51.654;5.476;2023-08-06T01:02:48;7.28;;;2.60;;
72920;SDS011;61064;51.654;5.476;2023-08-06T01:05:13;6.88;;;2.70;;
72920;SDS011;61064;51.654;5.476;2023-08-06T01:07:49;7.93;;;2.90;;
72920;SDS011;61064;51.654;5.476;2023-08-06T01:10:54;7.88;;;2.83;;
72920;SDS011;61064;51.654;5.476;2023-08-06T01:13:49;8.57;;;3.13;;
72920;SDS011;61064;51.654;5.476;2023-08-06T01:16:38;7.73;;;2.80;;
72920;SDS011;61064;51.654;5.476;2023-08-06T01:19:15;7.57;;;2.85;;
72920;SDS011;61064;51.654;5.476;2023-08-06T01:21:41;7.53;;;2.47;;
72920;SDS011;61064;51.654;5.476;2023-08-06T01:24:06;7.93;;;3.03;;
72920;SDS011;61064;51.654;5.476;2023-08-06T01:29:57;8.40;;;2.65;;
72920;SDS011;61064;51.654;5.476;2023-08-06T01:32:25;7.32;;;2.83;;
72920;SDS011;61064;51.654;5.476;2023-08-06T01:34:51;8.05;;;2.83;;
72920;SDS011;61064;51.654;5.476;2023-08-06T01:37:19;7.13;;;2.60;;
72920;SDS011;61064;51.654;5.476;2023-08-06T01:39:44;7.57;;;2.63;;
72920;SDS011;61064;51.654;5.476;2023-08-06T01:42:10;8.60;;;3.00;;
72920;SDS011;61064;51.654;5.476;2023-08-06T01:44:40;8.00;;;2.67;;
72920;SDS011;61064;51.654;5.476;2023-08-06T01:47:05;7.50;;;2.57;;
72920;SDS011;61064;51.654;5.476;2023-08-06T01:49:31;7.80;;;2.27;;
72920;SDS011;61064;51.654;5.476;2023-08-06T01:51:56;7.50;;;2.50;;
72920;SDS011;61064;51.654;5.476;2023-08-06T01:54:22;6.97;;;2.73;;
72920;SDS011;61064;51.654;5.476;2023-08-06T01:56:47;8.40;;;2.80;;
72920;SDS011;61064;51.654;5.476;2023-08-06T01:59:13;6.80;;;2.80;;
72920;SDS011;61064;51.654;5.476;2023-08-06T02:01:38;6.90;;;2.50;;
72920;SDS011;61064;51.654;5.476;2023-08-06T02:04:04;9.90;;;2.60;;
72920;SDS011;61064;51.654;5.476;2023-08-06T02:06:29;7.40;;;2.53;;
72920;SDS011;61064;51.654;5.476;2023-08-06T02:08:55;8.35;;;2.80;;
72920;SDS011;61064;51.654;5.476;2023-08-06T02:11:20;7.47;;;2.60;;
72920;SDS011;61064;51.654;5.476;2023-08-06T02:13:46;8.60;;;2.80;;
72920;SDS011;61064;51.654;5.476;2023-08-06T02:16:13;7.80;;;2.65;;
72920;SDS011;61064;51.654;5.476;2023-08-06T02:18:39;7.93;;;2.83;;
72920;SDS011;61064;51.654;5.476;2023-08-06T02:21:04;8.07;;;2.70;;
72920;SDS011;61064;51.654;5.476;2023-08-06T02:23:30;7.57;;;2.87;;
72920;SDS011;61064;51.654;5.476;2023-08-06T02:26:02;10.30;;;3.07;;
72920;SDS011;61064;51.654;5.476;2023-08-06T02:28:30;7.32;;;2.65;;
72920;SDS011;61064;51.654;5.476;2023-08-06T02:30:56;7.20;;;2.90;;
72920;SDS011;61064;51.654;5.476;2023-08-06T02:33:21;9.27;;;3.10;;
72920;SDS011;61064;51.654;5.476;2023-08-06T02:35:49;9.32;;;3.30;;
72920;SDS011;61064;51.654;5.476;2023-08-06T02:38:15;8.13;;;2.60;;
72920;SDS011;61064;51.654;5.476;2023-08-06T02:40:44;9.23;;;3.00;;
72920;SDS011;61064;51.654;5.476;2023-08-06T02:43:10;6.68;;;2.88;;
72920;SDS011;61064;51.654;5.476;2023-08-06T02:45:40;11.68;;;2.97;;
72920;SDS011;61064;51.654;5.476;2023-08-06T02:48:06;9.10;;;3.23;;
72920;SDS011;61064;51.654;5.476;2023-08-06T02:50:37;7.77;;;2.63;;
72920;SDS011;61064;51.654;5.476;2023-08-06T02:53:04;10.23;;;2.72;;
72920;SDS011;61064;51.654;5.476;2023-08-06T02:55:29;8.50;;;2.65;;
72920;SDS011;61064;51.654;5.476;2023-08-06T02:57:58;6.83;;;2.63;;
72920;SDS011;61064;51.654;5.476;2023-08-06T03:00:24;8.50;;;2.80;;
72920;SDS011;61064;51.654;5.476;2023-08-06T03:02:56;9.73;;;2.73;;
72920;SDS011;61064;51.654;5.476;2023-08-06T03:05:22;7.50;;;3.00;;
72920;SDS011;61064;51.654;5.476;2023-08-06T03:07:47;8.80;;;2.80;;
72920;SDS011;61064;51.654;5.476;2023-08-06T03:10:12;9.40;;;2.90;;
72920;SDS011;61064;51.654;5.476;2023-08-06T03:12:38;7.13;;;2.80;;
72920;SDS011;61064;51.654;5.476;2023-08-06T03:15:08;8.10;;;2.83;;
72920;SDS011;61064;51.654;5.476;2023-08-06T03:17:39;9.30;;;3.20;;
72920;SDS011;61064;51.654;5.476;2023-08-06T03:20:05;7.70;;;2.90;;
72920;SDS011;61064;51.654;5.476;2023-08-06T03:22:33;8.48;;;2.65;;
72920;SDS011;61064;51.654;5.476;2023-08-06T03:25:02;8.25;;;2.50;;
72920;SDS011;61064;51.654;5.476;2023-08-06T03:27:28;8.80;;;2.92;;
72920;SDS011;61064;51.654;5.476;2023-08-06T03:29:58;7.70;;;2.97;;
72920;SDS011;61064;51.654;5.476;2023-08-06T03:32:25;7.72;;;2.90;;
72920;SDS011;61064;51.654;5.476;2023-08-06T03:34:53;7.50;;;3.10;;
72920;SDS011;61064;51.654;5.476;2023-08-06T03:37:24;8.23;;;3.10;;
72920;SDS011;61064;51.654;5.476;2023-08-06T03:39:49;7.87;;;2.90;;
72920;SDS011;61064;51.654;5.476;2023-08-06T03:42:20;8.00;;;2.83;;
72920;SDS011;61064;51.654;5.476;2023-08-06T03:44:49;7.32;;;2.88;;
72920;SDS011;61064;51.654;5.476;2023-08-06T03:47:15;8.47;;;3.03;;
72920;SDS011;61064;51.654;5.476;2023-08-06T03:49:40;9.05;;;2.90;;
72920;SDS011;61064;51.654;5.476;2023-08-06T03:52:06;6.93;;;2.70;;
72920;SDS011;61064;51.654;5.476;2023-08-06T03:54:34;8.75;;;3.50;;
72920;SDS011;61064;51.654;5.476;2023-08-06T03:56:59;9.57;;;3.07;;
72920;SDS011;61064;51.654;5.476;2023-08-06T03:59:24;7.53;;;3.10;;
72920;SDS011;61064;51.654;5.476;2023-08-06T04:01:50;6.30;;;2.87;;
72920;SDS011;61064;51.654;5.476;2023-08-06T04:04:17;10.07;;;3.05;;
72920;SDS011;61064;51.654;5.476;2023-08-06T04:06:49;8.10;;;2.95;;
72920;SDS011;61064;51.654;5.476;2023-08-06T04:09:35;7.73;;;2.77;;
72920;SDS011;61064;51.654;5.476;2023-08-06T04:12:17;8.18;;;2.60;;
72920;SDS011;61064;51.654;5.476;2023-08-06T04:14:54;8.43;;;3.00;;
72920;SDS011;61064;51.654;5.476;2023-08-06T04:17:23;7.25;;;2.53;;
72920;SDS011;61064;51.654;5.476;2023-08-06T04:19:55;7.53;;;2.63;;
72920;SDS011;61064;51.654;5.476;2023-08-06T04:22:34;7.53;;;2.73;;
72920;SDS011;61064;51.654;5.476;2023-08-06T04:25:15;7.15;;;2.53;;
72920;SDS011;61064;51.654;5.476;2023-08-06T04:27:57;9.00;;;2.80;;
72920;SDS011;61064;51.654;5.476;2023-08-06T04:30:51;9.20;;;2.80;;
72920;SDS011;61064;51.654;5.476;2023-08-06T04:33:18;8.65;;;3.15;;
72920;SDS011;61064;51.654;5.476;2023-08-06T04:35:44;8.33;;;2.60;;
72920;SDS011;61064;51.654;5.476;2023-08-06T04:38:20;6.57;;;2.60;;
72920;SDS011;61064;51.654;5.476;2023-08-06T04:44:10;7.03;;;2.67;;
72920;SDS011;61064;51.654;5.476;2023-08-06T04:46:58;8.13;;;2.60;;
72920;SDS011;61064;51.654;5.476;2023-08-06T04:49:33;7.22;;;3.00;;
72920;SDS011;61064;51.654;5.476;2023-08-06T04:51:58;7.00;;;2.57;;
72920;SDS011;61064;51.654;5.476;2023-08-06T04:54:29;7.90;;;3.08;;
72920;SDS011;61064;51.654;5.476;2023-08-06T04:56:58;8.63;;;2.97;;
72920;SDS011;61064;51.654;5.476;2023-08-06T04:59:26;7.35;;;3.00;;
72920;SDS011;61064;51.654;5.476;2023-08-06T05:01:54;8.53;;;3.07;;
72920;SDS011;61064;51.654;5.476;2023-08-06T05:04:29;9.80;;;3.35;;
72920;SDS011;61064;51.654;5.476;2023-08-06T05:06:55;7.25;;;3.05;;
72920;SDS011;61064;51.654;5.476;2023-08-06T05:09:20;7.57;;;3.27;;
72920;SDS011;61064;51.654;5.476;2023-08-06T05:11:46;8.83;;;3.43;;
72920;SDS011;61064;51.654;5.476;2023-08-06T05:14:20;10.10;;;3.15;;
72920;SDS011;61064;51.654;5.476;2023-08-06T05:16:52;9.65;;;3.40;;
72920;SDS011;61064;51.654;5.476;2023-08-06T05:19:32;10.27;;;3.20;;
72920;SDS011;61064;51.654;5.476;2023-08-06T05:21:58;7.77;;;3.00;;
72920;SDS011;61064;51.654;5.476;2023-08-06T05:24:27;7.38;;;3.28;;
72920;SDS011;61064;51.654;5.476;2023-08-06T05:26:55;8.70;;;3.30;;
72920;SDS011;61064;51.654;5.476;2023-08-06T05:29:21;8.23;;;3.30;;
72920;SDS011;61064;51.654;5.476;2023-08-06T05:31:46;8.18;;;3.00;;
72920;SDS011;61064;51.654;5.476;2023-08-06T05:34:20;8.03;;;3.30;;
72920;SDS011;61064;51.654;5.476;2023-08-06T05:36:53;9.63;;;3.90;;
72920;SDS011;61064;51.654;5.476;2023-08-06T05:39:37;9.02;;;3.70;;
72920;SDS011;61064;51.654;5.476;2023-08-06T05:42:35;9.57;;;4.10;;
72920;SDS011;61064;51.654;5.476;2023-08-06T05:45:26;9.63;;;4.20;;
72920;SDS011;61064;51.654;5.476;2023-08-06T05:48:16;9.13;;;4.50;;
72920;SDS011;61064;51.654;5.476;2023-08-06T05:50:45;18.85;;;6.05;;
72920;SDS011;61064;51.654;5.476;2023-08-06T05:53:40;11.50;;;5.18;;
72920;SDS011;61064;51.654;5.476;2023-08-06T05:56:25;9.25;;;4.43;;
72920;SDS011;61064;51.654;5.476;2023-08-06T05:59:10;12.40;;;5.00;;
72920;SDS011;61064;51.654;5.476;2023-08-06T06:05:20;9.73;;;4.90;;
72920;SDS011;61064;51.654;5.476;2023-08-06T06:07:47;10.35;;;4.45;;
72920;SDS011;61064;51.654;5.476;2023-08-06T06:10:16;10.88;;;4.60;;
72920;SDS011;61064;51.654;5.476;2023-08-06T06:12:44;10.60;;;4.43;;
72920;SDS011;61064;51.654;5.476;2023-08-06T06:15:10;10.40;;;5.10;;
72920;SDS011;61064;51.654;5.476;2023-08-06T06:17:38;12.87;;;4.67;;
72920;SDS011;61064;51.654;5.476;2023-08-06T06:20:12;11.43;;;4.60;;
72920;SDS011;61064;51.654;5.476;2023-08-06T06:22:38;11.90;;;5.03;;
72920;SDS011;61064;51.654;5.476;2023-08-06T06:25:03;9.82;;;4.78;;
72920;SDS011;61064;51.654;5.476;2023-08-06T06:27:29;10.40;;;5.07;;
72920;SDS011;61064;51.654;5.476;2023-08-06T06:29:54;11.63;;;5.50;;
72920;SDS011;61064;51.654;5.476;2023-08-06T06:32:20;10.25;;;5.18;;
72920;SDS011;61064;51.654;5.476;2023-08-06T06:34:46;11.10;;;5.47;;
72920;SDS011;61064;51.654;5.476;2023-08-06T06:37:11;11.65;;;6.22;;
72920;SDS011;61064;51.654;5.476;2023-08-06T06:39:37;11.80;;;5.73;;
72920;SDS011;61064;51.654;5.476;2023-08-06T06:42:02;12.70;;;5.83;;
72920;SDS011;61064;51.654;5.476;2023-08-06T06:44:28;11.68;;;5.72;;
72920;SDS011;61064;51.654;5.476;2023-08-06T06:46:56;13.50;;;6.50;;
72920;SDS011;61064;51.654;5.476;2023-08-06T06:49:21;11.77;;;6.20;;
72920;SDS011;61064;51.654;5.476;2023-08-06T06:51:46;10.50;;;6.13;;
72920;SDS011;61064;51.654;5.476;2023-08-06T06:54:15;16.02;;;7.00;;
72920;SDS011;61064;51.654;5.476;2023-08-06T06:56:43;12.57;;;6.77;;
72920;SDS011;61064;51.654;5.476;2023-08-06T06:59:08;13.43;;;6.88;;
72920;SDS011;61064;51.654;5.476;2023-08-06T07:01:33;13.57;;;7.07;;
72920;SDS011;61064;51.654;5.476;2023-08-06T07:03:59;12.43;;;6.73;;
72920;SDS011;61064;51.654;5.476;2023-08-06T07:06:29;11.98;;;7.28;;
72920;SDS011;61064;51.654;5.476;2023-08-06T07:08:55;12.27;;;6.93;;
72920;SDS011;61064;51.654;5.476;2023-08-06T07:11:20;13.97;;;7.20;;
72920;SDS011;61064;51.654;5.476;2023-08-06T07:13:46;15.33;;;7.00;;
72920;SDS011;61064;51.654;5.476;2023-08-06T07:16:11;12.93;;;7.05;;
72920;SDS011;61064;51.654;5.476;2023-08-06T07:18:36;12.03;;;6.70;;
72920;SDS011;61064;51.654;5.476;2023-08-06T07:21:04;13.73;;;7.07;;
72920;SDS011;61064;51.654;5.476;2023-08-06T07:23:30;15.27;;;7.43;;
72920;SDS011;61064;51.654;5.476;2023-08-06T07:25:55;12.70;;;6.97;;
72920;SDS011;61064;51.654;5.476;2023-08-06T07:28:20;13.87;;;7.30;;
72920;SDS011;61064;51.654;5.476;2023-08-06T07:30:47;14.75;;;7.97;;
72920;SDS011;61064;51.654;5.476;2023-08-06T07:33:12;12.00;;;7.00;;
72920;SDS011;61064;51.654;5.476;2023-08-06T07:35:38;12.80;;;6.83;;
72920;SDS011;61064;51.654;5.476;2023-08-06T07:38:04;10.60;;;4.53;;
72920;SDS011;61064;51.654;5.476;2023-08-06T07:40:29;7.13;;;1.80;;
72920;SDS011;61064;51.654;5.476;2023-08-06T07:42:55;3.85;;;0.90;;
72920;SDS011;61064;51.654;5.476;2023-08-06T07:45:20;4.60;;;0.80;;
72920;SDS011;61064;51.654;5.476;2023-08-06T07:47:46;5.50;;;0.70;;
72920;SDS011;61064;51.654;5.476;2023-08-06T07:50:11;3.90;;;0.80;;
72920;SDS011;61064;51.654;5.476;2023-08-06T07:52:37;4.80;;;0.87;;
72920;SDS011;61064;51.654;5.476;2023-08-06T07:55:03;3.28;;;0.75;;
72920;SDS011;61064;51.654;5.476;2023-08-06T07:57:33;4.43;;;1.23;;
72920;SDS011;61064;51.654;5.476;2023-08-06T07:59:59;4.10;;;1.27;;
72920;SDS011;61064;51.654;5.476;2023-08-06T08:02:25;4.95;;;1.50;;
72920;SDS011;61064;51.654;5.476;2023-08-06T08:04:50;5.07;;;1.87;;
72920;SDS011;61064;51.654;5.476;2023-08-06T08:07:16;6.40;;;2.73;;
72920;SDS011;61064;51.654;5.476;2023-08-06T08:09:41;6.32;;;2.33;;
72920;SDS011;61064;51.654;5.476;2023-08-06T08:12:06;5.70;;;2.50;;
72920;SDS011;61064;51.654;5.476;2023-08-06T08:14:35;6.73;;;2.73;;
72920;SDS011;61064;51.654;5.476;2023-08-06T08:17:03;7.03;;;2.97;;
72920;SDS011;61064;51.654;5.476;2023-08-06T08:19:30;8.40;;;3.10;;
72920;SDS011;61064;51.654;5.476;2023-08-06T08:21:56;8.00;;;3.20;;
72920;SDS011;61064;51.654;5.476;2023-08-06T08:24:21;7.20;;;3.42;;
72920;SDS011;61064;51.654;5.476;2023-08-06T08:26:52;9.50;;;3.37;;
72920;SDS011;61064;51.654;5.476;2023-08-06T08:29:21;8.13;;;2.92;;
72920;SDS011;61064;51.654;5.476;2023-08-06T08:31:47;7.78;;;3.05;;
72920;SDS011;61064;51.654;5.476;2023-08-06T08:34:16;10.07;;;3.20;;
72920;SDS011;61064;51.654;5.476;2023-08-06T08:39:47;8.17;;;2.37;;
72920;SDS011;61064;51.654;5.476;2023-08-06T08:42:33;6.53;;;2.33;;
72920;SDS011;61064;51.654;5.476;2023-08-06T08:48:41;6.85;;;2.30;;
72920;SDS011;61064;51.654;5.476;2023-08-06T08:54:41;8.83;;;1.90;;
72920;SDS011;61064;51.654;5.476;2023-08-06T08:57:17;7.07;;;1.95;;
72920;SDS011;61064;51.654;5.476;2023-08-06T08:59:53;7.80;;;1.70;;
72920;SDS011;61064;51.654;5.476;2023-08-06T09:05:12;5.82;;;1.65;;
72920;SDS011;61064;51.654;5.476;2023-08-06T09:07:43;8.70;;;1.80;;
72920;SDS011;61064;51.654;5.476;2023-08-06T09:10:20;6.00;;;1.63;;
72920;SDS011;61064;51.654;5.476;2023-08-06T09:13:27;7.05;;;1.40;;
72920;SDS011;61064;51.654;5.476;2023-08-06T09:16:21;7.70;;;2.10;;
72920;SDS011;61064;51.654;5.476;2023-08-06T09:19:11;8.73;;;1.40;;
72920;SDS011;61064;51.654;5.476;2023-08-06T09:21:55;6.07;;;1.30;;
72920;SDS011;61064;51.654;5.476;2023-08-06T09:24:27;6.63;;;1.60;;
72920;SDS011;61064;51.654;5.476;2023-08-06T09:30:09;8.15;;;1.45;;
72920;SDS011;61064;51.654;5.476;2023-08-06T09:33:02;6.97;;;1.58;;
72920;SDS011;61064;51.654;5.476;2023-08-06T09:35:50;5.97;;;1.37;;
72920;SDS011;61064;51.654;5.476;2023-08-06T09:39:02;5.25;;;1.17;;
72920;SDS011;61064;51.654;5.476;2023-08-06T09:48:26;6.18;;;1.33;;
72920;SDS011;61064;51.654;5.476;2023-08-06T09:51:02;5.87;;;1.20;;
72920;SDS011;61064;51.654;5.476;2023-08-06T09:53:43;6.35;;;1.40;;
72920;SDS011;61064;51.654;5.476;2023-08-06T09:56:09;4.97;;;1.33;;
72920;SDS011;61064;51.654;5.476;2023-08-06T09:58:39;7.82;;;1.30;;
72920;SDS011;61064;51.654;5.476;2023-08-06T10:01:08;6.28;;;1.42;;
72920;SDS011;61064;51.654;5.476;2023-08-06T10:03:41;5.47;;;1.30;;
72920;SDS011;61064;51.654;5.476;2023-08-06T10:06:07;6.40;;;1.73;;
72920;SDS011;61064;51.654;5.476;2023-08-06T10:08:36;6.60;;;1.30;;
72920;SDS011;61064;51.654;5.476;2023-08-06T10:11:02;6.57;;;1.43;;
72920;SDS011;61064;51.654;5.476;2023-08-06T10:13:29;6.20;;;1.40;;
72920;SDS011;61064;51.654;5.476;2023-08-06T10:15:55;7.32;;;1.95;;
72920;SDS011;61064;51.654;5.476;2023-08-06T10:18:21;8.17;;;1.80;;
72920;SDS011;61064;51.654;5.476;2023-08-06T10:20:47;6.50;;;1.52;;
72920;SDS011;61064;51.654;5.476;2023-08-06T10:23:13;7.38;;;1.58;;
72920;SDS011;61064;51.654;5.476;2023-08-06T10:25:40;6.55;;;1.38;;
72920;SDS011;61064;51.654;5.476;2023-08-06T10:28:12;7.37;;;1.50;;
72920;SDS011;61064;51.654;5.476;2023-08-06T10:30:45;7.70;;;1.50;;
72920;SDS011;61064;51.654;5.476;2023-08-06T10:33:12;6.75;;;1.77;;
72920;SDS011;61064;51.654;5.476;2023-08-06T10:38:19;6.68;;;1.77;;
72920;SDS011;61064;51.654;5.476;2023-08-06T10:43:36;6.32;;;1.58;;
72920;SDS011;61064;51.654;5.476;2023-08-06T10:46:21;6.43;;;1.70;;
72920;SDS011;61064;51.654;5.476;2023-08-06T10:48:47;6.50;;;1.60;;
72920;SDS011;61064;51.654;5.476;2023-08-06T10:51:13;7.68;;;1.98;;
72920;SDS011;61064;51.654;5.476;2023-08-06T10:53:43;6.80;;;2.03;;
72920;SDS011;61064;51.654;5.476;2023-08-06T10:56:19;6.07;;;1.53;;
72920;SDS011;61064;51.654;5.476;2023-08-06T10:58:50;6.28;;;1.60;;
72920;SDS011;61064;51.654;5.476;2023-08-06T11:01:26;6.30;;;1.50;;
72920;SDS011;61064;51.654;5.476;2023-08-06T11:03:54;7.15;;;1.70;;
72920;SDS011;61064;51.654;5.476;2023-08-06T11:06:33;8.05;;;1.67;;
72920;SDS011;61064;51.654;5.476;2023-08-06T11:09:17;9.33;;;1.90;;
72920;SDS011;61064;51.654;5.476;2023-08-06T11:12:05;8.02;;;1.30;;
72920;SDS011;61064;51.654;5.476;2023-08-06T11:14:55;5.68;;;1.30;;
72920;SDS011;61064;51.654;5.476;2023-08-06T11:17:21;7.90;;;1.50;;
72920;SDS011;61064;51.654;5.476;2023-08-06T11:19:46;7.00;;;1.50;;
72920;SDS011;61064;51.654;5.476;2023-08-06T11:22:15;8.10;;;1.77;;
72920;SDS011;61064;51.654;5.476;2023-08-06T11:25:02;6.63;;;1.40;;
72920;SDS011;61064;51.654;5.476;2023-08-06T11:28:04;7.13;;;1.58;;
72920;SDS011;61064;51.654;5.476;2023-08-06T11:30:40;7.50;;;1.70;;
72920;SDS011;61064;51.654;5.476;2023-08-06T11:33:26;5.73;;;1.53;;
72920;SDS011;61064;51.654;5.476;2023-08-06T11:42:36;8.45;;;1.42;;
72920;SDS011;61064;51.654;5.476;2023-08-06T11:45:40;6.80;;;1.27;;
72920;SDS011;61064;51.654;5.476;2023-08-06T11:51:36;6.93;;;1.70;;
72920;SDS011;61064;51.654;5.476;2023-08-06T11:54:01;7.43;;;1.77;;
72920;SDS011;61064;51.654;5.476;2023-08-06T11:56:27;10.95;;;1.80;;
72920;SDS011;61064;51.654;5.476;2023-08-06T11:58:56;7.90;;;1.85;;
72920;SDS011;61064;51.654;5.476;2023-08-06T12:01:23;6.72;;;2.00;;
72920;SDS011;61064;51.654;5.476;2023-08-06T12:03:49;8.47;;;2.10;;
72920;SDS011;61064;51.654;5.476;2023-08-06T12:06:15;7.53;;;2.00;;
72920;SDS011;61064;51.654;5.476;2023-08-06T12:08:40;10.23;;;2.73;;
72920;SDS011;61064;51.654;5.476;2023-08-06T12:11:07;6.68;;;2.30;;
72920;SDS011;61064;51.654;5.476;2023-08-06T12:13:33;7.70;;;1.90;;
72920;SDS011;61064;51.654;5.476;2023-08-06T12:15:59;6.73;;;1.93;;
72920;SDS011;61064;51.654;5.476;2023-08-06T12:18:25;6.53;;;1.80;;
72920;SDS011;61064;51.654;5.476;2023-08-06T12:20:51;8.63;;;1.97;;
72920;SDS011;61064;51.654;5.476;2023-08-06T12:23:19;8.73;;;2.22;;
72920;SDS011;61064;51.654;5.476;2023-08-06T12:25:47;7.22;;;2.10;;
72920;SDS011;61064;51.654;5.476;2023-08-06T12:28:12;7.27;;;1.80;;
72920;SDS011;61064;51.654;5.476;2023-08-06T12:30:38;6.30;;;1.77;;
72920;SDS011;61064;51.654;5.476;2023-08-06T12:33:09;7.63;;;1.67;;
72920;SDS011;61064;51.654;5.476;2023-08-06T12:35:40;6.05;;;1.50;;
72920;SDS011;61064;51.654;5.476;2023-08-06T12:38:08;7.50;;;1.50;;
72920;SDS011;61064;51.654;5.476;2023-08-06T12:40:39;5.93;;;1.58;;
72920;SDS011;61064;51.654;5.476;2023-08-06T12:43:05;8.97;;;1.60;;
72920;SDS011;61064;51.654;5.476;2023-08-06T12:45:33;6.45;;;1.67;;
72920;SDS011;61064;51.654;5.476;2023-08-06T12:48:02;7.72;;;1.60;;
72920;SDS011;61064;51.654;5.476;2023-08-06T12:50:28;6.77;;;1.40;;
72920;SDS011;61064;51.654;5.476;2023-08-06T12:53:02;5.68;;;1.40;;
72920;SDS011;61064;51.654;5.476;2023-08-06T12:55:34;6.70;;;1.48;;
72920;SDS011;61064;51.654;5.476;2023-08-06T12:57:59;6.57;;;1.33;;
72920;SDS011;61064;51.654;5.476;2023-08-06T13:00:33;5.63;;;1.57;;
72920;SDS011;61064;51.654;5.476;2023-08-06T13:03:08;6.65;;;1.55;;
72920;SDS011;61064;51.654;5.476;2023-08-06T13:05:36;6.88;;;1.40;;
72920;SDS011;61064;51.654;5.476;2023-08-06T13:08:02;7.22;;;1.20;;
72920;SDS011;61064;51.654;5.476;2023-08-06T13:10:33;6.93;;;1.42;;
72920;SDS011;61064;51.654;5.476;2023-08-06T13:12:59;5.93;;;1.20;;
72920;SDS011;61064;51.654;5.476;2023-08-06T13:15:28;5.90;;;1.33;;
72920;SDS011;61064;51.654;5.476;2023-08-06T13:17:56;7.90;;;1.50;;
72920;SDS011;61064;51.654;5.476;2023-08-06T13:20:32;6.68;;;1.60;;
72920;SDS011;61064;51.654;5.476;2023-08-06T13:23:00;7.75;;;1.60;;
72920;SDS011;61064;51.654;5.476;2023-08-06T13:25:31;6.80;;;1.10;;
72920;SDS011;61064;51.654;5.476;2023-08-06T13:28:12;5.80;;;1.13;;
72920;SDS011;61064;51.654;5.476;2023-08-06T13:30:39;6.68;;;1.20;;
72920;SDS011;61064;51.654;5.476;2023-08-06T13:33:26;6.30;;;1.17;;
72920;SDS011;61064;51.654;5.476;2023-08-06T13:35:55;6.00;;;1.20;;
72920;SDS011;61064;51.654;5.476;2023-08-06T13:38:46;5.97;;;1.30;;
72920;SDS011;61064;51.654;5.476;2023-08-06T13:41:12;5.85;;;1.42;;
72920;SDS011;61064;51.654;5.476;2023-08-06T13:43:40;5.82;;;1.27;;
72920;SDS011;61064;51.654;5.476;2023-08-06T13:46:12;7.70;;;1.52;;
72920;SDS011;61064;51.654;5.476;2023-08-06T13:48:43;6.03;;;1.40;;
72920;SDS011;61064;51.654;5.476;2023-08-06T13:51:18;6.67;;;1.33;;
72920;SDS011;61064;51.654;5.476;2023-08-06T13:53:44;6.22;;;1.38;;
72920;SDS011;61064;51.654;5.476;2023-08-06T13:59:16;9.35;;;1.60;;
72920;SDS011;61064;51.654;5.476;2023-08-06T14:01:51;6.28;;;1.40;;
72920;SDS011;61064;51.654;5.476;2023-08-06T14:04:24;9.23;;;2.80;;
72920;SDS011;61064;51.654;5.476;2023-08-06T14:06:54;6.13;;;1.95;;
72920;SDS011;61064;51.654;5.476;2023-08-06T14:09:43;6.95;;;1.80;;
72920;SDS011;61064;51.654;5.476;2023-08-06T14:12:19;8.18;;;1.70;;
72920;SDS011;61064;51.654;5.476;2023-08-06T14:14:45;7.43;;;1.63;;
72920;SDS011;61064;51.654;5.476;2023-08-06T14:17:13;5.47;;;1.30;;
72920;SDS011;61064;51.654;5.476;2023-08-06T14:19:48;6.90;;;1.70;;
72920;SDS011;61064;51.654;5.476;2023-08-06T14:22:14;8.68;;;1.40;;
72920;SDS011;61064;51.654;5.476;2023-08-06T14:24:42;8.03;;;1.37;;
72920;SDS011;61064;51.654;5.476;2023-08-06T14:27:12;6.20;;;1.50;;
72920;SDS011;61064;51.654;5.476;2023-08-06T14:29:37;8.07;;;1.50;;
72920;SDS011;61064;51.654;5.476;2023-08-06T14:32:13;7.00;;;1.50;;
72920;SDS011;61064;51.654;5.476;2023-08-06T14:34:45;8.15;;;2.63;;
72920;SDS011;61064;51.654;5.476;2023-08-06T14:37:20;5.50;;;1.50;;
72920;SDS011;61064;51.654;5.476;2023-08-06T14:39:45;7.43;;;1.80;;
72920;SDS011;61064;51.654;5.476;2023-08-06T14:42:10;6.67;;;1.70;;
72920;SDS011;61064;51.654;5.476;2023-08-06T14:44:36;5.13;;;1.40;;
72920;SDS011;61064;51.654;5.476;2023-08-06T14:47:01;6.18;;;1.25;;
72920;SDS011;61064;51.654;5.476;2023-08-06T14:49:27;5.63;;;0.90;;
72920;SDS011;61064;51.654;5.476;2023-08-06T14:51:52;4.60;;;0.80;;
72920;SDS011;61064;51.654;5.476;2023-08-06T14:54:17;7.30;;;0.97;;
72920;SDS011;61064;51.654;5.476;2023-08-06T14:56:43;4.53;;;0.85;;
72920;SDS011;61064;51.654;5.476;2023-08-06T14:59:08;6.03;;;1.00;;
72920;SDS011;61064;51.654;5.476;2023-08-06T15:01:34;4.97;;;0.80;;
72920;SDS011;61064;51.654;5.476;2023-08-06T15:03:59;4.20;;;0.90;;
72920;SDS011;61064;51.654;5.476;2023-08-06T15:06:25;4.88;;;1.00;;
72920;SDS011;61064;51.654;5.476;2023-08-06T15:08:50;3.87;;;0.70;;
72920;SDS011;61064;51.654;5.476;2023-08-06T15:11:16;5.03;;;1.03;;
72920;SDS011;61064;51.654;5.476;2023-08-06T15:13:41;5.33;;;1.10;;
72920;SDS011;61064;51.654;5.476;2023-08-06T15:16:06;4.18;;;0.85;;
72920;SDS011;61064;51.654;5.476;2023-08-06T15:18:32;3.87;;;0.80;;
72920;SDS011;61064;51.654;5.476;2023-08-06T15:20:57;5.73;;;1.00;;
72920;SDS011;61064;51.654;5.476;2023-08-06T15:23:25;5.20;;;1.20;;
72920;SDS011;61064;51.654;5.476;2023-08-06T15:25:51;3.72;;;1.00;;
72920;SDS011;61064;51.654;5.476;2023-08-06T15:28:21;5.63;;;1.10;;
72920;SDS011;61064;51.654;5.476;2023-08-06T15:30:50;4.07;;;0.90;;
72920;SDS011;61064;51.654;5.476;2023-08-06T15:33:19;3.67;;;0.70;;
72920;SDS011;61064;51.654;5.476;2023-08-06T15:35:44;4.63;;;0.87;;
72920;SDS011;61064;51.654;5.476;2023-08-06T15:38:10;5.40;;;0.77;;
72920;SDS011;61064;51.654;5.476;2023-08-06T15:40:38;5.60;;;0.98;;
72920;SDS011;61064;51.654;5.476;2023-08-06T15:43:06;4.57;;;0.70;;
72920;SDS011;61064;51.654;5.476;2023-08-06T15:45:37;5.53;;;0.60;;
72920;SDS011;61064;51.654;5.476;2023-08-06T15:48:03;5.30;;;0.90;;
72920;SDS011;61064;51.654;5.476;2023-08-06T15:50:31;5.22;;;0.65;;
72920;SDS011;61064;51.654;5.476;2023-08-06T15:52:57;4.53;;;0.50;;
72920;SDS011;61064;51.654;5.476;2023-08-06T15:55:22;6.70;;;0.70;;